createdAt,value
2023-08-08T00:02:41.136Z,1.00
2023-08-08T00:06:06.099Z,1.10
2023-08-08T00:09:30.081Z,1.35
2023-08-08T00:12:54.202Z,1.00
2023-08-08T00:16:19.133Z,1.00
2023-08-08T00:19:43.108Z,1.25
2023-08-08T00:23:07.216Z,0.80
2023-08-08T00:26:31.061Z,0.93
2023-08-08T00:29:56.249Z,1.10
2023-08-08T00:33:21.084Z,1.00
2023-08-08T00:36:45.107Z,1.05
2023-08-08T00:40:02.115Z,1.30
2023-08-08T00:43:27.204Z,1.00
2023-08-08T00:46:52.187Z,0.80
2023-08-08T00:50:18.295Z,0.90
2023-08-08T00:53:42.072Z,1.05
2023-08-08T00:57:07.314Z,0.82
2023-08-08T01:00:24.786Z,1.02
2023-08-08T01:03:42.136Z,1.17
2023-08-08T01:07:49.128Z,0.90
2023-08-08T01:11:14.229Z,0.90
2023-08-08T01:14:41.107Z,1.00
2023-08-08T01:18:15.126Z,0.90
2023-08-08T01:21:41.263Z,0.70
2023-08-08T01:25:05.093Z,1.00
2023-08-08T01:28:29.124Z,0.90
2023-08-08T01:31:54.251Z,1.00
2023-08-08T01:35:18.131Z,1.20
2023-08-08T01:38:45.239Z,1.13
2023-08-08T01:42:11.122Z,1.00
2023-08-08T01:45:36.228Z,1.30
2023-08-08T01:49:03.133Z,1.52
2023-08-08T01:52:28.304Z,1.95
2023-08-08T01:55:55.174Z,1.70
2023-08-08T01:59:20.302Z,1.40
2023-08-08T02:02:38.248Z,1.73
2023-08-08T02:05:57.283Z,1.10
2023-08-08T02:09:24.110Z,1.25
2023-08-08T02:12:48.307Z,1.50
2023-08-08T02:16:13.163Z,1.10
2023-08-08T02:19:39.279Z,1.20
2023-08-08T02:23:04.131Z,1.38
2023-08-08T02:26:28.273Z,0.90
2023-08-08T02:29:52.122Z,1.00
2023-08-08T02:33:17.330Z,1.92
2023-08-08T02:36:42.136Z,1.70
2023-08-08T02:40:06.305Z,2.25
2023-08-08T02:43:30.128Z,2.05
2023-08-08T02:46:55.271Z,1.10
2023-08-08T02:50:20.128Z,0.90
2023-08-08T02:53:44.325Z,0.90
2023-08-08T02:57:09.123Z,0.90
2023-08-08T03:00:34.270Z,1.00
2023-08-08T03:03:56.874Z,0.85
2023-08-08T03:07:16.176Z,0.82
2023-08-08T03:10:41.155Z,0.80
2023-08-08T03:14:06.291Z,0.90
2023-08-08T03:17:30.174Z,0.90
2023-08-08T03:20:54.284Z,0.93
2023-08-08T03:24:23.163Z,0.80
2023-08-08T03:27:47.332Z,0.75
2023-08-08T03:31:12.204Z,0.82
2023-08-08T03:34:37.292Z,0.70
2023-08-08T03:38:04.163Z,0.70
2023-08-08T03:41:29.338Z,0.60
2023-08-08T03:44:54.175Z,0.80
2023-08-08T03:48:20.421Z,0.70
2023-08-08T03:51:45.182Z,0.80
2023-08-08T03:55:10.197Z,0.73
2023-08-08T03:58:34.191Z,1.08
2023-08-08T04:01:59.189Z,0.90
2023-08-08T04:05:16.805Z,0.80
2023-08-08T04:08:35.356Z,1.10
2023-08-08T04:12:00.525Z,0.80
2023-08-08T04:15:26.287Z,0.77
2023-08-08T04:18:50.194Z,0.90
2023-08-08T04:22:14.275Z,0.85
2023-08-08T04:25:39.200Z,0.90
2023-08-08T04:29:04.320Z,1.35
2023-08-08T04:32:28.173Z,0.90
2023-08-08T04:35:53.339Z,1.10
2023-08-08T04:39:18.190Z,1.30
2023-08-08T04:42:43.359Z,2.00
2023-08-08T04:46:07.268Z,1.42
2023-08-08T04:49:32.264Z,1.23
2023-08-08T04:52:56.174Z,1.52
2023-08-08T04:56:21.376Z,1.42
2023-08-08T04:59:46.170Z,2.30
2023-08-08T05:03:10.391Z,1.40
2023-08-08T05:06:27.883Z,1.10
2023-08-08T05:09:46.339Z,1.10
2023-08-08T05:13:10.189Z,1.50
2023-08-08T05:16:34.441Z,1.90
2023-08-08T05:19:59.200Z,2.00
2023-08-08T05:23:23.230Z,2.13
2023-08-08T05:26:47.188Z,1.90
2023-08-08T05:30:12.386Z,2.58
2023-08-08T05:33:37.207Z,3.00
2023-08-08T05:37:14.386Z,2.13
2023-08-08T05:40:40.222Z,1.50
2023-08-08T05:44:04.321Z,1.40
2023-08-08T05:47:28.262Z,2.08
2023-08-08T05:50:57.234Z,2.63
2023-08-08T05:54:22.250Z,4.28
2023-08-08T05:57:47.209Z,5.93
2023-08-08T06:01:15.405Z,7.57
2023-08-08T06:04:40.220Z,9.38
2023-08-08T06:08:05.379Z,3.10
2023-08-08T06:11:30.233Z,2.50
2023-08-08T06:14:56.239Z,2.35
2023-08-08T06:18:20.373Z,4.20
2023-08-08T06:21:45.231Z,4.90
2023-08-08T06:25:10.362Z,5.88
2023-08-08T06:28:34.251Z,6.38
2023-08-08T06:31:58.602Z,6.78
2023-08-08T06:35:25.233Z,3.90
2023-08-08T06:38:52.392Z,2.10
2023-08-08T06:42:16.241Z,2.20
2023-08-08T06:45:46.305Z,4.50
2023-08-08T06:49:11.352Z,2.67
2023-08-08T06:52:35.246Z,3.10
2023-08-08T06:56:00.409Z,3.70
2023-08-08T06:59:24.239Z,2.10
2023-08-08T07:02:48.369Z,1.90
2023-08-08T07:06:12.263Z,2.70
2023-08-08T07:09:37.410Z,3.47
2023-08-08T07:13:01.306Z,3.75
2023-08-08T07:16:25.420Z,4.38
2023-08-08T07:19:51.269Z,14.40
2023-08-08T07:23:15.288Z,9.93
2023-08-08T07:26:39.285Z,6.95
2023-08-08T07:30:03.298Z,3.40
2023-08-08T07:33:27.425Z,4.35
2023-08-08T07:36:51.258Z,3.50
2023-08-08T07:40:17.425Z,4.60
2023-08-08T07:43:43.245Z,3.10
2023-08-08T07:47:07.279Z,6.07
2023-08-08T07:50:31.397Z,3.47
2023-08-08T07:53:55.256Z,2.40
2023-08-08T07:57:20.443Z,4.70
2023-08-08T08:00:47.333Z,7.35
2023-08-08T08:04:12.472Z,10.55
2023-08-08T08:07:36.263Z,11.75
2023-08-08T08:11:00.400Z,11.30
2023-08-08T08:14:25.270Z,11.27
2023-08-08T08:17:50.307Z,5.25
2023-08-08T08:21:15.430Z,3.22
2023-08-08T08:24:39.278Z,3.38
2023-08-08T08:28:03.411Z,4.72
2023-08-08T08:31:27.350Z,2.33
2023-08-08T08:34:51.310Z,1.88
2023-08-08T08:38:09.304Z,2.50
2023-08-08T08:41:36.423Z,2.80
2023-08-08T08:45:00.267Z,2.60
2023-08-08T08:48:27.420Z,2.90
2023-08-08T08:51:52.285Z,2.38
2023-08-08T08:55:17.413Z,3.20
2023-08-08T08:58:42.296Z,4.40
2023-08-08T09:02:07.428Z,3.58
2023-08-08T09:05:31.295Z,3.42
2023-08-08T09:09:03.301Z,2.30
2023-08-08T09:12:32.278Z,3.00
2023-08-08T09:15:58.522Z,3.05
2023-08-08T09:19:22.339Z,3.00
2023-08-08T09:22:46.434Z,2.90
2023-08-08T09:26:10.292Z,3.20
2023-08-08T09:29:34.426Z,5.55
2023-08-08T09:33:00.301Z,4.25
2023-08-08T09:36:28.442Z,2.90
2023-08-08T09:39:45.911Z,2.10
2023-08-08T09:43:03.442Z,3.65
2023-08-08T09:46:28.395Z,4.35
2023-08-08T09:49:53.358Z,17.67
2023-08-08T09:53:19.323Z,14.40
2023-08-08T09:56:44.343Z,9.00
2023-08-08T10:00:08.315Z,8.10
2023-08-08T10:03:33.542Z,9.20
2023-08-08T10:06:58.322Z,9.07
2023-08-08T10:10:23.357Z,7.97
2023-08-08T10:13:47.306Z,7.45
2023-08-08T10:17:06.483Z,6.68
2023-08-08T10:20:30.332Z,3.60
2023-08-08T10:23:55.483Z,3.10
2023-08-08T10:27:20.334Z,3.50
2023-08-08T10:30:45.477Z,4.38
2023-08-08T10:34:21.322Z,3.90
2023-08-08T10:37:46.446Z,3.67
2023-08-08T10:41:07.924Z,4.05
2023-08-08T10:44:34.424Z,7.72
2023-08-08T10:47:58.330Z,6.78
2023-08-08T10:51:22.537Z,6.80
2023-08-08T10:54:46.326Z,8.30
2023-08-08T10:58:14.353Z,10.55
2023-08-08T11:01:41.342Z,8.32
2023-08-08T11:05:00.393Z,5.75
2023-08-08T11:08:25.354Z,6.70
2023-08-08T11:11:56.512Z,4.82
2023-08-08T11:15:20.324Z,6.25
2023-08-08T11:18:45.507Z,12.15
2023-08-08T11:22:10.336Z,7.78
2023-08-08T11:25:35.372Z,5.72
2023-08-08T11:29:09.353Z,4.93
2023-08-08T11:32:34.486Z,5.85
2023-08-08T11:36:01.344Z,4.57
2023-08-08T11:39:25.461Z,5.05
2023-08-08T11:42:43.852Z,5.10
2023-08-08T11:46:10.405Z,5.63
2023-08-08T11:49:34.470Z,3.88
2023-08-08T11:53:04.820Z,2.33
2023-08-08T11:56:29.357Z,2.40
2023-08-08T11:59:54.348Z,5.53
2023-08-08T12:03:20.573Z,6.55
2023-08-08T12:06:45.533Z,20.92
2023-08-08T12:10:10.626Z,14.93
2023-08-08T12:13:40.361Z,10.35
2023-08-08T12:17:04.700Z,5.32
2023-08-08T12:20:31.346Z,6.20
2023-08-08T12:23:56.517Z,5.90
2023-08-08T12:27:20.351Z,5.22
2023-08-08T12:30:44.510Z,5.22
2023-08-08T12:34:08.365Z,4.90
2023-08-08T12:37:32.535Z,5.05
2023-08-08T12:40:56.374Z,5.35
2023-08-08T12:44:21.386Z,7.45
2023-08-08T12:47:46.378Z,6.95
2023-08-08T12:51:12.502Z,6.70
2023-08-08T12:54:37.447Z,4.57
2023-08-08T12:58:02.385Z,5.80
2023-08-08T13:01:26.342Z,6.15
2023-08-08T13:04:50.489Z,5.05
2023-08-08T13:08:15.357Z,4.97
2023-08-08T13:11:39.503Z,5.30
2023-08-08T13:15:03.356Z,5.88
2023-08-08T13:18:28.404Z,6.22
2023-08-08T13:21:53.529Z,4.75
2023-08-08T13:25:17.372Z,5.07
2023-08-08T13:28:41.529Z,5.70
2023-08-08T13:32:05.359Z,5.47
2023-08-08T13:35:29.560Z,4.40
2023-08-08T13:38:55.193Z,4.68
2023-08-08T13:42:20.545Z,4.18
2023-08-08T13:45:45.490Z,7.93
2023-08-08T13:49:09.504Z,6.97
2023-08-08T13:52:33.383Z,6.82
2023-08-08T13:55:58.501Z,5.95
2023-08-08T13:59:23.396Z,4.68
2023-08-08T14:02:47.597Z,4.50
2023-08-08T14:06:11.389Z,4.82
2023-08-08T14:09:37.425Z,4.60
2023-08-08T14:13:01.427Z,4.15
2023-08-08T14:16:26.596Z,4.22
2023-08-08T14:19:51.398Z,3.13
2023-08-08T14:23:16.556Z,3.92
2023-08-08T14:26:41.392Z,4.40
2023-08-08T14:30:06.460Z,2.90
2023-08-08T14:33:32.415Z,3.47
2023-08-08T14:36:56.547Z,3.25
2023-08-08T14:40:20.382Z,2.55
2023-08-08T14:43:45.540Z,4.43
2023-08-08T14:47:09.396Z,3.83
2023-08-08T14:50:34.675Z,4.05
2023-08-08T14:53:58.426Z,4.18
2023-08-08T14:57:23.440Z,3.60
2023-08-08T15:00:47.568Z,3.50
2023-08-08T15:04:13.461Z,3.53
2023-08-08T15:07:37.426Z,3.60
2023-08-08T15:11:01.434Z,3.88
2023-08-08T15:14:26.415Z,3.50
2023-08-08T15:17:51.462Z,1.05
2023-08-08T15:21:15.559Z,2.65
2023-08-08T15:24:42.414Z,3.92
2023-08-08T15:28:06.552Z,4.53
2023-08-08T15:31:30.468Z,3.50
2023-08-08T15:34:54.458Z,3.10
2023-08-08T15:38:18.415Z,3.13
2023-08-08T15:41:44.526Z,4.05
2023-08-08T15:45:09.396Z,4.70
2023-08-08T15:48:33.578Z,4.28
2023-08-08T15:51:57.392Z,5.70
2023-08-08T15:55:21.576Z,8.40
2023-08-08T15:58:45.429Z,9.38
2023-08-08T16:02:09.590Z,2.13
2023-08-08T16:05:33.445Z,1.65
2023-08-08T16:08:58.585Z,14.13
2023-08-08T16:12:22.461Z,11.93
2023-08-08T16:15:46.570Z,1.50
2023-08-08T16:19:10.441Z,2.90
2023-08-08T16:22:35.584Z,11.20
2023-08-08T16:26:00.448Z,10.85
2023-08-08T16:29:24.606Z,8.95
2023-08-08T16:32:49.455Z,9.55
2023-08-08T16:36:13.460Z,10.90
2023-08-08T16:39:38.483Z,4.75
2023-08-08T16:43:02.427Z,8.52
2023-08-08T16:46:27.608Z,9.23
2023-08-08T16:49:51.410Z,1.20
2023-08-08T16:53:16.576Z,1.75
2023-08-08T16:56:41.427Z,8.93
2023-08-08T17:00:05.575Z,4.45
2023-08-08T17:03:29.557Z,4.00
2023-08-08T17:06:54.475Z,2.60
2023-08-08T17:10:19.485Z,3.10
2023-08-08T17:13:43.445Z,2.30
2023-08-08T17:17:09.613Z,3.78
2023-08-08T17:20:34.443Z,3.90
2023-08-08T17:23:59.637Z,4.03
2023-08-08T17:27:23.465Z,2.85
2023-08-08T17:30:48.728Z,3.15
2023-08-08T17:34:15.452Z,2.30
2023-08-08T17:37:40.657Z,2.60
2023-08-08T17:41:05.447Z,2.50
2023-08-08T17:44:29.545Z,2.40
2023-08-08T17:47:53.644Z,2.33
2023-08-08T17:51:17.454Z,2.35
2023-08-08T17:54:41.490Z,2.80
2023-08-08T17:58:05.463Z,2.30
2023-08-08T18:01:30.653Z,2.55
2023-08-08T18:04:54.476Z,1.10
2023-08-08T18:08:20.485Z,1.00
2023-08-08T18:11:47.481Z,1.48
2023-08-08T18:15:12.592Z,1.30
2023-08-08T18:18:36.458Z,1.50
2023-08-08T18:22:01.803Z,1.60
2023-08-08T18:25:27.654Z,1.70
2023-08-08T18:28:51.484Z,1.80
2023-08-08T18:32:16.606Z,1.65
2023-08-08T18:35:41.479Z,2.20
2023-08-08T18:39:05.610Z,3.05
2023-08-08T18:42:30.479Z,2.72
2023-08-08T18:45:55.640Z,2.80
2023-08-08T18:49:19.471Z,2.30
2023-08-08T18:52:44.674Z,2.80
2023-08-08T18:56:08.473Z,3.13
2023-08-08T18:59:33.612Z,3.05
2023-08-08T19:02:57.643Z,3.78
2023-08-08T19:06:22.628Z,2.45
2023-08-08T19:09:47.510Z,2.60
2023-08-08T19:13:14.372Z,3.45
2023-08-08T19:16:39.550Z,3.90
2023-08-08T19:20:04.622Z,3.45
2023-08-08T19:23:29.508Z,3.60
2023-08-08T19:26:54.483Z,2.90
2023-08-08T19:30:18.682Z,3.95
2023-08-08T19:33:48.694Z,7.05
2023-08-08T19:37:24.697Z,4.15
2023-08-08T19:40:43.116Z,5.00
2023-08-08T19:44:00.603Z,4.28
2023-08-08T19:47:25.526Z,3.50
2023-08-08T19:50:51.624Z,5.60
2023-08-08T19:54:15.475Z,8.55
2023-08-08T19:57:39.517Z,5.03
2023-08-08T20:01:04.521Z,3.17
2023-08-08T20:04:28.666Z,3.10
2023-08-08T20:07:53.443Z,4.10
2023-08-08T20:11:19.620Z,6.65
2023-08-08T20:14:43.507Z,6.97
2023-08-08T20:18:08.524Z,4.13
2023-08-08T20:21:32.667Z,7.28
2023-08-08T20:24:56.498Z,7.90
2023-08-08T20:28:21.665Z,6.18
2023-08-08T20:31:45.489Z,4.15
2023-08-08T20:35:10.651Z,5.97
2023-08-08T20:38:35.501Z,6.07
2023-08-08T20:41:59.956Z,4.55
2023-08-08T20:45:25.604Z,4.78
2023-08-08T20:48:49.521Z,3.88
2023-08-08T20:52:13.530Z,3.70
2023-08-08T20:55:38.672Z,4.28
2023-08-08T20:59:03.568Z,4.07
2023-08-08T21:02:27.692Z,2.08
2023-08-08T21:05:51.555Z,2.17
2023-08-08T21:09:19.676Z,1.60
2023-08-08T21:12:44.529Z,1.40
2023-08-08T21:16:08.653Z,1.42
2023-08-08T21:19:31.528Z,1.50
2023-08-08T21:22:56.556Z,1.70
2023-08-08T21:26:26.200Z,1.52
2023-08-08T21:30:00.654Z,1.52
2023-08-08T21:33:24.535Z,1.30
2023-08-08T21:36:48.546Z,1.50
2023-08-08T21:40:11.536Z,1.30
2023-08-08T21:43:36.693Z,1.33
2023-08-08T21:47:02.807Z,1.50
2023-08-08T21:50:28.735Z,1.30
2023-08-08T21:53:53.541Z,1.30
2023-08-08T21:57:17.561Z,1.20
2023-08-08T22:00:42.613Z,1.00
2023-08-08T22:04:06.568Z,1.00
2023-08-08T22:07:31.564Z,1.10
2023-08-08T22:10:54.723Z,1.00
2023-08-08T22:14:19.549Z,1.10
2023-08-08T22:17:53.354Z,1.20
2023-08-08T22:21:18.546Z,1.00
2023-08-08T22:24:44.581Z,1.55
2023-08-08T22:28:08.598Z,1.35
2023-08-08T22:31:33.541Z,1.00
2023-08-08T22:34:57.692Z,1.10
2023-08-08T22:38:21.571Z,1.20
2023-08-08T22:41:45.685Z,1.10
2023-08-08T22:45:03.177Z,1.30
2023-08-08T22:48:21.580Z,0.90
2023-08-08T22:51:46.581Z,1.00
2023-08-08T22:55:12.592Z,0.90
2023-08-08T22:58:37.604Z,1.00
2023-08-08T23:02:02.615Z,0.82
2023-08-08T23:05:26.615Z,0.77
2023-08-08T23:08:50.606Z,0.90
2023-08-08T23:12:14.584Z,1.00
2023-08-08T23:15:38.606Z,1.00
2023-08-08T23:19:03.720Z,0.90
2023-08-08T23:22:27.564Z,0.80
2023-08-08T23:25:54.625Z,0.80
2023-08-08T23:29:19.569Z,0.85
2023-08-08T23:32:53.546Z,0.77
2023-08-08T23:36:19.582Z,1.10
2023-08-08T23:39:44.616Z,1.13
2023-08-08T23:43:09.602Z,0.90
2023-08-08T23:46:33.606Z,1.05
2023-08-08T23:49:57.592Z,0.70
2023-08-08T23:53:22.702Z,0.80
2023-08-08T23:56:46.599Z,1.00
